Terminal Aerodrome Forecast
Issued by NWS

Current Version | Previous Version | Text Only | Print | Product List | Glossary Off
Versions: 1 2 3 4 5 6 7 8 9 10 11 12 13 14 15 16 17 18 19 20

176
FTUS41 KRLX 031720
TAFCKB
TAF
KCKB 031720Z 0318/0418 20009KT P6SM BKN050
     FM032200 23009KT P6SM SCT035
     FM040800 25007KT P6SM BKN025
     FM041100 25006KT P6SM BKN015=

USA.gov is the U.S. government's official web portal to all federal, state and local government web resources and services.